sensor_id;sensor_type;location;lat;lon;timestamp;P1;durP1;ratioP1;P2;durP2;ratioP2
78799;SDS011;68148;55.328;86.106;2023-03-01T00:01:39;5.43;;;2.50;;
78799;SDS011;68148;55.328;86.106;2023-03-01T00:04:10;3.78;;;1.77;;
78799;SDS011;68148;55.328;86.106;2023-03-01T00:06:57;5.38;;;1.98;;
78799;SDS011;68148;55.328;86.106;2023-03-01T00:09:31;3.35;;;1.83;;
78799;SDS011;68148;55.328;86.106;2023-03-01T00:12:08;4.72;;;2.03;;
78799;SDS011;68148;55.328;86.106;2023-03-01T00:14:35;3.47;;;1.58;;
78799;SDS011;68148;55.328;86.106;2023-03-01T00:17:01;10.52;;;3.08;;
78799;SDS011;68148;55.328;86.106;2023-03-01T00:19:30;6.78;;;1.85;;
78799;SDS011;68148;55.328;86.106;2023-03-01T00:21:56;5.72;;;1.92;;
78799;SDS011;68148;55.328;86.106;2023-03-01T00:24:22;6.55;;;2.35;;
78799;SDS011;68148;55.328;86.106;2023-03-01T00:26:52;6.28;;;1.80;;
78799;SDS011;68148;55.328;86.106;2023-03-01T00:29:21;9.18;;;2.60;;
78799;SDS011;68148;55.328;86.106;2023-03-01T00:31:48;5.95;;;2.25;;
78799;SDS011;68148;55.328;86.106;2023-03-01T00:34:16;2.63;;;1.38;;
78799;SDS011;68148;55.328;86.106;2023-03-01T00:36:42;7.97;;;2.28;;
78799;SDS011;68148;55.328;86.106;2023-03-01T00:39:10;7.65;;;2.58;;
78799;SDS011;68148;55.328;86.106;2023-03-01T00:41:40;7.85;;;3.10;;
78799;SDS011;68148;55.328;86.106;2023-03-01T00:44:07;4.85;;;1.70;;
78799;SDS011;68148;55.328;86.106;2023-03-01T00:46:34;5.70;;;2.75;;
78799;SDS011;68148;55.328;86.106;2023-03-01T00:49:01;5.80;;;2.28;;
78799;SDS011;68148;55.328;86.106;2023-03-01T00:51:27;7.05;;;2.20;;
78799;SDS011;68148;55.328;86.106;2023-03-01T00:53:55;5.40;;;1.65;;
78799;SDS011;68148;55.328;86.106;2023-03-01T00:56:24;3.22;;;1.83;;
78799;SDS011;68148;55.328;86.106;2023-03-01T00:58:51;4.35;;;2.13;;
78799;SDS011;68148;55.328;86.106;2023-03-01T01:01:19;6.80;;;2.55;;
78799;SDS011;68148;55.328;86.106;2023-03-01T01:03:50;6.18;;;2.20;;
78799;SDS011;68148;55.328;86.106;2023-03-01T01:06:22;7.88;;;2.80;;
78799;SDS011;68148;55.328;86.106;2023-03-01T01:08:50;5.13;;;2.08;;
78799;SDS011;68148;55.328;86.106;2023-03-01T01:11:18;5.78;;;2.35;;
78799;SDS011;68148;55.328;86.106;2023-03-01T01:13:47;5.00;;;1.95;;
78799;SDS011;68148;55.328;86.106;2023-03-01T01:16:14;6.88;;;2.67;;
78799;SDS011;68148;55.328;86.106;2023-03-01T01:18:40;7.97;;;2.75;;
78799;SDS011;68148;55.328;86.106;2023-03-01T01:21:08;3.70;;;1.70;;
78799;SDS011;68148;55.328;86.106;2023-03-01T01:23:37;9.90;;;2.67;;
78799;SDS011;68148;55.328;86.106;2023-03-01T01:26:04;5.75;;;1.70;;
78799;SDS011;68148;55.328;86.106;2023-03-01T01:28:32;4.32;;;2.17;;
78799;SDS011;68148;55.328;86.106;2023-03-01T01:30:59;5.93;;;2.65;;
78799;SDS011;68148;55.328;86.106;2023-03-01T01:33:25;14.13;;;3.92;;
78799;SDS011;68148;55.328;86.106;2023-03-01T01:35:51;6.97;;;2.97;;
78799;SDS011;68148;55.328;86.106;2023-03-01T01:38:17;8.35;;;2.95;;
78799;SDS011;68148;55.328;86.106;2023-03-01T01:40:44;8.85;;;2.95;;
78799;SDS011;68148;55.328;86.106;2023-03-01T01:43:24;8.18;;;3.13;;
78799;SDS011;68148;55.328;86.106;2023-03-01T01:46:01;14.63;;;2.75;;
78799;SDS011;68148;55.328;86.106;2023-03-01T01:48:43;7.63;;;2.53;;
78799;SDS011;68148;55.328;86.106;2023-03-01T01:51:13;7.45;;;2.88;;
78799;SDS011;68148;55.328;86.106;2023-03-01T01:53:44;10.65;;;4.80;;
78799;SDS011;68148;55.328;86.106;2023-03-01T01:56:13;13.82;;;3.78;;
78799;SDS011;68148;55.328;86.106;2023-03-01T01:58:42;9.73;;;3.55;;
78799;SDS011;68148;55.328;86.106;2023-03-01T02:01:12;9.50;;;3.78;;
78799;SDS011;68148;55.328;86.106;2023-03-01T02:03:39;11.50;;;3.45;;
78799;SDS011;68148;55.328;86.106;2023-03-01T02:09:03;9.60;;;3.60;;
78799;SDS011;68148;55.328;86.106;2023-03-01T02:11:33;10.00;;;3.85;;
78799;SDS011;68148;55.328;86.106;2023-03-01T02:14:00;12.60;;;3.45;;
78799;SDS011;68148;55.328;86.106;2023-03-01T02:16:30;5.88;;;2.20;;
78799;SDS011;68148;55.328;86.106;2023-03-01T02:18:56;8.85;;;3.60;;
78799;SDS011;68148;55.328;86.106;2023-03-01T02:21:38;9.70;;;2.83;;
78799;SDS011;68148;55.328;86.106;2023-03-01T02:27:11;4.95;;;2.13;;
78799;SDS011;68148;55.328;86.106;2023-03-01T02:29:38;4.43;;;1.83;;
78799;SDS011;68148;55.328;86.106;2023-03-01T02:32:04;5.07;;;2.22;;
78799;SDS011;68148;55.328;86.106;2023-03-01T02:34:31;4.53;;;1.60;;
78799;SDS011;68148;55.328;86.106;2023-03-01T02:39:34;4.80;;;2.25;;
78799;SDS011;68148;55.328;86.106;2023-03-01T02:42:07;2.65;;;1.48;;
78799;SDS011;68148;55.328;86.106;2023-03-01T02:44:37;7.50;;;2.38;;
78799;SDS011;68148;55.328;86.106;2023-03-01T02:47:04;6.78;;;2.42;;
78799;SDS011;68148;55.328;86.106;2023-03-01T02:49:32;3.67;;;1.63;;
78799;SDS011;68148;55.328;86.106;2023-03-01T02:55:09;5.00;;;1.80;;
78799;SDS011;68148;55.328;86.106;2023-03-01T02:57:40;6.38;;;1.90;;
78799;SDS011;68148;55.328;86.106;2023-03-01T03:00:11;6.40;;;2.72;;
78799;SDS011;68148;55.328;86.106;2023-03-01T03:02:39;3.90;;;1.83;;
78799;SDS011;68148;55.328;86.106;2023-03-01T03:05:09;5.20;;;2.78;;
78799;SDS011;68148;55.328;86.106;2023-03-01T03:07:46;5.10;;;2.55;;
78799;SDS011;68148;55.328;86.106;2023-03-01T03:10:16;6.68;;;2.08;;
78799;SDS011;68148;55.328;86.106;2023-03-01T03:12:48;5.60;;;1.92;;
78799;SDS011;68148;55.328;86.106;2023-03-01T03:15:20;5.95;;;2.25;;
78799;SDS011;68148;55.328;86.106;2023-03-01T03:17:47;4.90;;;2.72;;
78799;SDS011;68148;55.328;86.106;2023-03-01T03:20:14;5.53;;;2.80;;
78799;SDS011;68148;55.328;86.106;2023-03-01T03:22:42;8.02;;;2.65;;
78799;SDS011;68148;55.328;86.106;2023-03-01T03:25:08;6.28;;;1.77;;
78799;SDS011;68148;55.328;86.106;2023-03-01T03:27:34;5.20;;;2.25;;
78799;SDS011;68148;55.328;86.106;2023-03-01T03:30:00;2.25;;;1.23;;
78799;SDS011;68148;55.328;86.106;2023-03-01T03:32:27;2.85;;;1.58;;
78799;SDS011;68148;55.328;86.106;2023-03-01T03:34:53;4.10;;;2.33;;
78799;SDS011;68148;55.328;86.106;2023-03-01T03:37:18;6.90;;;2.30;;
78799;SDS011;68148;55.328;86.106;2023-03-01T03:39:44;4.50;;;2.15;;
78799;SDS011;68148;55.328;86.106;2023-03-01T03:42:10;8.23;;;2.90;;
78799;SDS011;68148;55.328;86.106;2023-03-01T03:44:36;5.60;;;1.98;;
78799;SDS011;68148;55.328;86.106;2023-03-01T03:47:02;6.28;;;2.30;;
78799;SDS011;68148;55.328;86.106;2023-03-01T03:49:30;3.88;;;1.55;;
78799;SDS011;68148;55.328;86.106;2023-03-01T03:51:57;2.92;;;1.98;;
78799;SDS011;68148;55.328;86.106;2023-03-01T03:54:23;6.30;;;2.38;;
78799;SDS011;68148;55.328;86.106;2023-03-01T03:56:49;5.45;;;2.20;;
78799;SDS011;68148;55.328;86.106;2023-03-01T03:59:15;6.25;;;2.80;;
78799;SDS011;68148;55.328;86.106;2023-03-01T04:01:41;6.78;;;1.85;;
78799;SDS011;68148;55.328;86.106;2023-03-01T04:04:07;4.13;;;1.85;;
78799;SDS011;68148;55.328;86.106;2023-03-01T04:06:33;6.47;;;2.50;;
78799;SDS011;68148;55.328;86.106;2023-03-01T04:08:59;6.20;;;1.70;;
78799;SDS011;68148;55.328;86.106;2023-03-01T04:11:25;3.95;;;2.22;;
78799;SDS011;68148;55.328;86.106;2023-03-01T04:13:53;3.47;;;1.60;;
78799;SDS011;68148;55.328;86.106;2023-03-01T04:16:21;4.85;;;1.85;;
78799;SDS011;68148;55.328;86.106;2023-03-01T04:18:47;3.38;;;1.20;;
78799;SDS011;68148;55.328;86.106;2023-03-01T04:21:13;5.72;;;2.40;;
78799;SDS011;68148;55.328;86.106;2023-03-01T04:23:39;4.55;;;2.10;;
78799;SDS011;68148;55.328;86.106;2023-03-01T04:26:05;5.13;;;1.98;;
78799;SDS011;68148;55.328;86.106;2023-03-01T04:28:34;4.45;;;2.28;;
78799;SDS011;68148;55.328;86.106;2023-03-01T04:31:03;4.63;;;2.03;;
78799;SDS011;68148;55.328;86.106;2023-03-01T04:33:31;3.72;;;1.88;;
78799;SDS011;68148;55.328;86.106;2023-03-01T04:35:57;4.75;;;1.23;;
78799;SDS011;68148;55.328;86.106;2023-03-01T04:38:23;5.18;;;2.42;;
78799;SDS011;68148;55.328;86.106;2023-03-01T04:40:49;4.60;;;2.13;;
78799;SDS011;68148;55.328;86.106;2023-03-01T04:43:15;2.60;;;1.17;;
78799;SDS011;68148;55.328;86.106;2023-03-01T04:45:41;8.00;;;1.98;;
78799;SDS011;68148;55.328;86.106;2023-03-01T04:48:07;4.68;;;2.45;;
78799;SDS011;68148;55.328;86.106;2023-03-01T04:50:33;6.07;;;2.97;;
78799;SDS011;68148;55.328;86.106;2023-03-01T04:53:00;6.30;;;1.92;;
78799;SDS011;68148;55.328;86.106;2023-03-01T04:55:28;5.65;;;2.35;;
78799;SDS011;68148;55.328;86.106;2023-03-01T04:57:54;5.18;;;2.67;;
78799;SDS011;68148;55.328;86.106;2023-03-01T05:00:21;6.60;;;2.28;;
78799;SDS011;68148;55.328;86.106;2023-03-01T05:02:58;4.85;;;2.20;;
78799;SDS011;68148;55.328;86.106;2023-03-01T05:05:27;4.72;;;2.42;;
78799;SDS011;68148;55.328;86.106;2023-03-01T05:07:56;4.63;;;2.03;;
78799;SDS011;68148;55.328;86.106;2023-03-01T05:10:25;5.18;;;2.58;;
78799;SDS011;68148;55.328;86.106;2023-03-01T05:12:53;6.00;;;2.42;;
78799;SDS011;68148;55.328;86.106;2023-03-01T05:15:19;5.57;;;3.03;;
78799;SDS011;68148;55.328;86.106;2023-03-01T05:17:46;5.95;;;2.13;;
78799;SDS011;68148;55.328;86.106;2023-03-01T05:20:12;7.10;;;2.67;;
78799;SDS011;68148;55.328;86.106;2023-03-01T05:22:38;7.55;;;3.28;;
78799;SDS011;68148;55.328;86.106;2023-03-01T05:25:05;9.02;;;3.08;;
78799;SDS011;68148;55.328;86.106;2023-03-01T05:27:32;3.67;;;1.77;;
78799;SDS011;68148;55.328;86.106;2023-03-01T05:30:00;7.47;;;2.20;;
78799;SDS011;68148;55.328;86.106;2023-03-01T05:32:27;8.40;;;2.08;;
78799;SDS011;68148;55.328;86.106;2023-03-01T05:34:53;6.75;;;2.45;;
78799;SDS011;68148;55.328;86.106;2023-03-01T05:37:19;5.60;;;2.35;;
78799;SDS011;68148;55.328;86.106;2023-03-01T05:39:45;4.85;;;2.13;;
78799;SDS011;68148;55.328;86.106;2023-03-01T05:42:11;7.10;;;2.33;;
78799;SDS011;68148;55.328;86.106;2023-03-01T05:44:37;5.85;;;2.60;;
78799;SDS011;68148;55.328;86.106;2023-03-01T05:47:05;6.25;;;2.10;;
78799;SDS011;68148;55.328;86.106;2023-03-01T05:49:31;5.60;;;2.25;;
78799;SDS011;68148;55.328;86.106;2023-03-01T05:51:57;5.57;;;2.47;;
78799;SDS011;68148;55.328;86.106;2023-03-01T05:54:24;6.95;;;2.67;;
78799;SDS011;68148;55.328;86.106;2023-03-01T05:56:50;6.82;;;2.63;;
78799;SDS011;68148;55.328;86.106;2023-03-01T05:59:19;8.23;;;2.80;;
78799;SDS011;68148;55.328;86.106;2023-03-01T06:01:45;5.10;;;2.25;;
78799;SDS011;68148;55.328;86.106;2023-03-01T06:04:18;5.43;;;2.28;;
78799;SDS011;68148;55.328;86.106;2023-03-01T06:06:44;4.90;;;2.22;;
78799;SDS011;68148;55.328;86.106;2023-03-01T06:09:12;4.03;;;2.15;;
78799;SDS011;68148;55.328;86.106;2023-03-01T06:11:38;4.65;;;2.28;;
78799;SDS011;68148;55.328;86.106;2023-03-01T06:14:05;4.15;;;2.13;;
78799;SDS011;68148;55.328;86.106;2023-03-01T06:16:34;3.58;;;2.08;;
78799;SDS011;68148;55.328;86.106;2023-03-01T06:19:00;6.05;;;2.53;;
78799;SDS011;68148;55.328;86.106;2023-03-01T06:21:26;9.10;;;2.95;;
78799;SDS011;68148;55.328;86.106;2023-03-01T06:23:53;7.10;;;2.80;;
78799;SDS011;68148;55.328;86.106;2023-03-01T06:26:19;3.75;;;2.60;;
78799;SDS011;68148;55.328;86.106;2023-03-01T06:28:45;7.75;;;2.58;;
78799;SDS011;68148;55.328;86.106;2023-03-01T06:31:11;6.20;;;2.58;;
78799;SDS011;68148;55.328;86.106;2023-03-01T06:33:37;5.40;;;2.38;;
78799;SDS011;68148;55.328;86.106;2023-03-01T06:36:03;7.88;;;2.88;;
78799;SDS011;68148;55.328;86.106;2023-03-01T06:38:30;6.45;;;3.03;;
78799;SDS011;68148;55.328;86.106;2023-03-01T06:40:56;6.65;;;3.03;;
78799;SDS011;68148;55.328;86.106;2023-03-01T06:43:22;9.77;;;3.03;;
78799;SDS011;68148;55.328;86.106;2023-03-01T06:45:49;7.20;;;3.00;;
78799;SDS011;68148;55.328;86.106;2023-03-01T06:48:15;10.60;;;2.63;;
78799;SDS011;68148;55.328;86.106;2023-03-01T06:50:43;6.70;;;2.60;;
78799;SDS011;68148;55.328;86.106;2023-03-01T06:53:10;6.90;;;2.63;;
78799;SDS011;68148;55.328;86.106;2023-03-01T06:55:36;4.60;;;2.30;;
78799;SDS011;68148;55.328;86.106;2023-03-01T06:58:02;3.17;;;1.38;;
78799;SDS011;68148;55.328;86.106;2023-03-01T07:00:28;9.10;;;2.45;;
78799;SDS011;68148;55.328;86.106;2023-03-01T07:02:58;6.20;;;3.17;;
78799;SDS011;68148;55.328;86.106;2023-03-01T07:05:24;8.20;;;2.60;;
78799;SDS011;68148;55.328;86.106;2023-03-01T07:07:50;6.53;;;2.55;;
78799;SDS011;68148;55.328;86.106;2023-03-01T07:10:18;8.02;;;2.55;;
78799;SDS011;68148;55.328;86.106;2023-03-01T07:12:44;7.28;;;2.95;;
78799;SDS011;68148;55.328;86.106;2023-03-01T07:15:10;5.18;;;2.45;;
78799;SDS011;68148;55.328;86.106;2023-03-01T07:17:36;3.58;;;1.77;;
78799;SDS011;68148;55.328;86.106;2023-03-01T07:20:02;4.68;;;2.85;;
78799;SDS011;68148;55.328;86.106;2023-03-01T07:22:29;4.25;;;2.17;;
78799;SDS011;68148;55.328;86.106;2023-03-01T07:24:55;6.22;;;2.53;;
78799;SDS011;68148;55.328;86.106;2023-03-01T07:27:21;4.88;;;2.20;;
78799;SDS011;68148;55.328;86.106;2023-03-01T07:29:47;4.72;;;2.22;;
78799;SDS011;68148;55.328;86.106;2023-03-01T07:32:14;8.20;;;3.05;;
78799;SDS011;68148;55.328;86.106;2023-03-01T07:34:41;9.20;;;2.70;;
78799;SDS011;68148;55.328;86.106;2023-03-01T07:37:08;9.70;;;3.53;;
78799;SDS011;68148;55.328;86.106;2023-03-01T07:39:34;7.90;;;3.13;;
78799;SDS011;68148;55.328;86.106;2023-03-01T07:42:00;10.82;;;3.47;;
78799;SDS011;68148;55.328;86.106;2023-03-01T07:44:26;9.20;;;3.05;;
78799;SDS011;68148;55.328;86.106;2023-03-01T07:46:52;13.10;;;2.83;;
78799;SDS011;68148;55.328;86.106;2023-03-01T07:49:18;8.38;;;3.65;;
78799;SDS011;68148;55.328;86.106;2023-03-01T07:51:44;6.07;;;2.70;;
78799;SDS011;68148;55.328;86.106;2023-03-01T07:54:10;6.70;;;3.38;;
78799;SDS011;68148;55.328;86.106;2023-03-01T07:56:36;10.25;;;3.78;;
78799;SDS011;68148;55.328;86.106;2023-03-01T07:59:05;5.55;;;3.00;;
78799;SDS011;68148;55.328;86.106;2023-03-01T08:01:31;5.95;;;2.65;;
78799;SDS011;68148;55.328;86.106;2023-03-01T08:03:57;6.63;;;3.00;;
78799;SDS011;68148;55.328;86.106;2023-03-01T08:06:23;8.20;;;2.88;;
78799;SDS011;68148;55.328;86.106;2023-03-01T08:08:49;7.38;;;3.03;;
78799;SDS011;68148;55.328;86.106;2023-03-01T08:11:16;5.43;;;2.65;;
78799;SDS011;68148;55.328;86.106;2023-03-01T08:13:42;7.88;;;3.15;;
78799;SDS011;68148;55.328;86.106;2023-03-01T08:16:13;5.07;;;2.50;;
78799;SDS011;68148;55.328;86.106;2023-03-01T08:18:40;5.82;;;3.03;;
78799;SDS011;68148;55.328;86.106;2023-03-01T08:21:11;10.27;;;3.05;;
78799;SDS011;68148;55.328;86.106;2023-03-01T08:23:39;8.10;;;3.45;;
78799;SDS011;68148;55.328;86.106;2023-03-01T08:26:13;5.97;;;2.97;;
78799;SDS011;68148;55.328;86.106;2023-03-01T08:28:40;5.95;;;3.30;;
78799;SDS011;68148;55.328;86.106;2023-03-01T08:31:14;5.45;;;2.38;;
78799;SDS011;68148;55.328;86.106;2023-03-01T08:33:45;8.40;;;3.50;;
78799;SDS011;68148;55.328;86.106;2023-03-01T08:36:12;6.13;;;2.75;;
78799;SDS011;68148;55.328;86.106;2023-03-01T08:38:38;6.93;;;3.25;;
78799;SDS011;68148;55.328;86.106;2023-03-01T08:41:04;4.95;;;2.92;;
78799;SDS011;68148;55.328;86.106;2023-03-01T08:43:30;8.32;;;2.78;;
78799;SDS011;68148;55.328;86.106;2023-03-01T08:45:58;9.20;;;3.58;;
78799;SDS011;68148;55.328;86.106;2023-03-01T08:48:25;8.65;;;3.00;;
78799;SDS011;68148;55.328;86.106;2023-03-01T08:50:53;5.07;;;2.08;;
78799;SDS011;68148;55.328;86.106;2023-03-01T08:53:20;14.18;;;3.72;;
78799;SDS011;68148;55.328;86.106;2023-03-01T08:55:48;8.18;;;3.25;;
78799;SDS011;68148;55.328;86.106;2023-03-01T08:58:14;5.82;;;2.15;;
78799;SDS011;68148;55.328;86.106;2023-03-01T09:00:40;4.78;;;2.38;;
78799;SDS011;68148;55.328;86.106;2023-03-01T09:03:06;8.45;;;2.75;;
78799;SDS011;68148;55.328;86.106;2023-03-01T09:05:33;4.88;;;2.20;;
78799;SDS011;68148;55.328;86.106;2023-03-01T09:07:59;6.30;;;2.67;;
78799;SDS011;68148;55.328;86.106;2023-03-01T09:10:25;6.40;;;2.40;;
78799;SDS011;68148;55.328;86.106;2023-03-01T09:12:51;9.30;;;3.40;;
78799;SDS011;68148;55.328;86.106;2023-03-01T09:15:18;6.45;;;3.28;;
78799;SDS011;68148;55.328;86.106;2023-03-01T09:17:45;10.30;;;3.83;;
78799;SDS011;68148;55.328;86.106;2023-03-01T09:20:11;10.30;;;3.50;;
78799;SDS011;68148;55.328;86.106;2023-03-01T09:22:37;15.63;;;5.22;;
78799;SDS011;68148;55.328;86.106;2023-03-01T09:25:03;11.20;;;3.58;;
78799;SDS011;68148;55.328;86.106;2023-03-01T09:27:29;20.70;;;5.85;;
78799;SDS011;68148;55.328;86.106;2023-03-01T09:29:56;23.75;;;6.68;;
78799;SDS011;68148;55.328;86.106;2023-03-01T09:32:22;19.73;;;5.78;;
78799;SDS011;68148;55.328;86.106;2023-03-01T09:34:48;22.65;;;7.07;;
78799;SDS011;68148;55.328;86.106;2023-03-01T09:37:14;21.75;;;6.00;;
78799;SDS011;68148;55.328;86.106;2023-03-01T09:39:40;20.75;;;6.30;;
78799;SDS011;68148;55.328;86.106;2023-03-01T09:42:06;28.75;;;8.80;;
78799;SDS011;68148;55.328;86.106;2023-03-01T09:44:45;21.13;;;6.30;;
78799;SDS011;68148;55.328;86.106;2023-03-01T09:49:42;15.88;;;4.75;;
78799;SDS011;68148;55.328;86.106;2023-03-01T09:52:21;19.52;;;6.05;;
78799;SDS011;68148;55.328;86.106;2023-03-01T09:54:55;20.20;;;6.07;;
78799;SDS011;68148;55.328;86.106;2023-03-01T10:02:32;36.03;;;9.70;;
78799;SDS011;68148;55.328;86.106;2023-03-01T10:05:36;29.23;;;8.40;;
78799;SDS011;68148;55.328;86.106;2023-03-01T10:10:40;22.00;;;6.50;;
78799;SDS011;68148;55.328;86.106;2023-03-01T10:13:29;20.25;;;5.80;;
78799;SDS011;68148;55.328;86.106;2023-03-01T10:15:59;24.75;;;6.38;;
78799;SDS011;68148;55.328;86.106;2023-03-01T10:18:39;10.15;;;4.47;;
78799;SDS011;68148;55.328;86.106;2023-03-01T10:21:17;13.57;;;4.72;;
78799;SDS011;68148;55.328;86.106;2023-03-01T10:23:45;15.02;;;4.57;;
78799;SDS011;68148;55.328;86.106;2023-03-01T10:31:26;17.05;;;6.13;;
78799;SDS011;68148;55.328;86.106;2023-03-01T10:33:58;14.23;;;4.93;;
78799;SDS011;68148;55.328;86.106;2023-03-01T10:36:24;20.67;;;6.60;;
78799;SDS011;68148;55.328;86.106;2023-03-01T10:38:51;20.55;;;5.50;;
78799;SDS011;68148;55.328;86.106;2023-03-01T10:41:19;13.18;;;4.47;;
78799;SDS011;68148;55.328;86.106;2023-03-01T10:43:48;21.75;;;6.18;;
78799;SDS011;68148;55.328;86.106;2023-03-01T10:51:40;7.90;;;2.88;;
78799;SDS011;68148;55.328;86.106;2023-03-01T10:57:05;11.48;;;4.47;;
78799;SDS011;68148;55.328;86.106;2023-03-01T10:59:32;16.45;;;5.00;;
78799;SDS011;68148;55.328;86.106;2023-03-01T11:02:12;15.82;;;5.22;;
78799;SDS011;68148;55.328;86.106;2023-03-01T11:05:02;8.73;;;3.53;;
78799;SDS011;68148;55.328;86.106;2023-03-01T11:07:52;11.45;;;3.92;;
78799;SDS011;68148;55.328;86.106;2023-03-01T11:10:24;9.70;;;3.58;;
78799;SDS011;68148;55.328;86.106;2023-03-01T11:12:53;11.40;;;4.07;;
78799;SDS011;68148;55.328;86.106;2023-03-01T11:15:41;6.95;;;3.60;;
78799;SDS011;68148;55.328;86.106;2023-03-01T11:18:42;7.45;;;3.35;;
78799;SDS011;68148;55.328;86.106;2023-03-01T11:21:02;9.00;;;3.38;;
78799;SDS011;68148;55.328;86.106;2023-03-01T11:23:30;5.25;;;2.50;;
78799;SDS011;68148;55.328;86.106;2023-03-01T11:25:59;7.72;;;2.47;;
78799;SDS011;68148;55.328;86.106;2023-03-01T11:28:33;5.70;;;2.97;;
78799;SDS011;68148;55.328;86.106;2023-03-01T11:31:06;5.53;;;2.30;;
78799;SDS011;68148;55.328;86.106;2023-03-01T11:36:31;7.40;;;3.25;;
78799;SDS011;68148;55.328;86.106;2023-03-01T11:39:10;7.38;;;2.60;;
78799;SDS011;68148;55.328;86.106;2023-03-01T11:42:20;5.43;;;2.75;;
78799;SDS011;68148;55.328;86.106;2023-03-01T11:45:02;10.98;;;4.00;;
78799;SDS011;68148;55.328;86.106;2023-03-01T11:47:48;10.02;;;3.22;;
78799;SDS011;68148;55.328;86.106;2023-03-01T11:50:44;6.55;;;2.92;;
78799;SDS011;68148;55.328;86.106;2023-03-01T12:04:35;8.32;;;3.42;;
78799;SDS011;68148;55.328;86.106;2023-03-01T12:07:41;9.23;;;3.03;;
78799;SDS011;68148;55.328;86.106;2023-03-01T12:16:07;6.90;;;3.08;;
78799;SDS011;68148;55.328;86.106;2023-03-01T12:19:07;5.57;;;2.42;;
78799;SDS011;68148;55.328;86.106;2023-03-01T12:24:50;7.07;;;2.45;;
78799;SDS011;68148;55.328;86.106;2023-03-01T12:36:08;6.70;;;3.15;;
78799;SDS011;68148;55.328;86.106;2023-03-01T12:49:12;7.97;;;3.30;;
78799;SDS011;68148;55.328;86.106;2023-03-01T12:51:44;7.55;;;3.08;;
78799;SDS011;68148;55.328;86.106;2023-03-01T12:54:25;7.85;;;2.97;;
78799;SDS011;68148;55.328;86.106;2023-03-01T12:57:00;8.70;;;3.35;;
78799;SDS011;68148;55.328;86.106;2023-03-01T13:02:41;10.35;;;3.17;;
78799;SDS011;68148;55.328;86.106;2023-03-01T13:05:20;6.93;;;2.45;;
78799;SDS011;68148;55.328;86.106;2023-03-01T13:10:39;6.43;;;3.35;;
78799;SDS011;68148;55.328;86.106;2023-03-01T13:13:20;8.77;;;3.92;;
78799;SDS011;68148;55.328;86.106;2023-03-01T13:15:49;5.28;;;2.65;;
78799;SDS011;68148;55.328;86.106;2023-03-01T13:31:04;10.52;;;3.63;;
78799;SDS011;68148;55.328;86.106;2023-03-01T13:35:58;12.63;;;4.30;;
78799;SDS011;68148;55.328;86.106;2023-03-01T13:38:39;9.95;;;3.15;;
78799;SDS011;68148;55.328;86.106;2023-03-01T13:47:37;14.35;;;3.28;;
78799;SDS011;68148;55.328;86.106;2023-03-01T13:49:48;9.35;;;3.45;;
78799;SDS011;68148;55.328;86.106;2023-03-01T13:52:34;9.32;;;3.20;;
78799;SDS011;68148;55.328;86.106;2023-03-01T13:55:00;10.05;;;3.67;;
78799;SDS011;68148;55.328;86.106;2023-03-01T13:57:33;6.18;;;3.00;;
78799;SDS011;68148;55.328;86.106;2023-03-01T14:00:03;7.40;;;3.05;;
78799;SDS011;68148;55.328;86.106;2023-03-01T14:02:32;6.25;;;2.38;;
78799;SDS011;68148;55.328;86.106;2023-03-01T14:04:59;6.85;;;2.55;;
78799;SDS011;68148;55.328;86.106;2023-03-01T14:07:26;7.72;;;3.22;;
78799;SDS011;68148;55.328;86.106;2023-03-01T14:09:54;7.75;;;2.42;;
78799;SDS011;68148;55.328;86.106;2023-03-01T14:12:43;7.18;;;1.98;;
78799;SDS011;68148;55.328;86.106;2023-03-01T14:15:39;6.75;;;1.83;;
78799;SDS011;68148;55.328;86.106;2023-03-01T14:18:17;6.85;;;2.00;;
78799;SDS011;68148;55.328;86.106;2023-03-01T14:20:50;5.22;;;2.33;;
78799;SDS011;68148;55.328;86.106;2023-03-01T14:23:18;6.07;;;2.65;;
78799;SDS011;68148;55.328;86.106;2023-03-01T14:25:52;6.22;;;2.05;;
78799;SDS011;68148;55.328;86.106;2023-03-01T14:28:31;7.05;;;2.92;;
78799;SDS011;68148;55.328;86.106;2023-03-01T14:30:59;6.57;;;2.15;;
78799;SDS011;68148;55.328;86.106;2023-03-01T14:33:28;6.97;;;2.67;;
78799;SDS011;68148;55.328;86.106;2023-03-01T14:35:59;10.95;;;3.17;;
78799;SDS011;68148;55.328;86.106;2023-03-01T14:38:29;8.25;;;2.67;;
78799;SDS011;68148;55.328;86.106;2023-03-01T14:41:05;10.75;;;2.95;;
78799;SDS011;68148;55.328;86.106;2023-03-01T14:43:34;8.00;;;2.63;;
78799;SDS011;68148;55.328;86.106;2023-03-01T14:46:02;9.70;;;2.60;;
78799;SDS011;68148;55.328;86.106;2023-03-01T14:48:29;6.30;;;2.40;;
78799;SDS011;68148;55.328;86.106;2023-03-01T14:50:56;6.78;;;2.20;;
78799;SDS011;68148;55.328;86.106;2023-03-01T14:53:24;9.90;;;3.42;;
78799;SDS011;68148;55.328;86.106;2023-03-01T14:55:54;11.38;;;2.90;;
78799;SDS011;68148;55.328;86.106;2023-03-01T14:58:23;11.73;;;3.45;;
78799;SDS011;68148;55.328;86.106;2023-03-01T15:00:53;6.68;;;1.73;;
78799;SDS011;68148;55.328;86.106;2023-03-01T15:06:00;5.38;;;2.13;;
78799;SDS011;68148;55.328;86.106;2023-03-01T15:08:27;6.63;;;2.13;;
78799;SDS011;68148;55.328;86.106;2023-03-01T15:13:24;4.30;;;2.28;;
78799;SDS011;68148;55.328;86.106;2023-03-01T15:18:27;7.82;;;2.10;;
78799;SDS011;68148;55.328;86.106;2023-03-01T15:21:02;5.32;;;2.10;;
78799;SDS011;68148;55.328;86.106;2023-03-01T15:23:32;7.25;;;1.85;;
78799;SDS011;68148;55.328;86.106;2023-03-01T15:25:59;5.53;;;2.08;;
78799;SDS011;68148;55.328;86.106;2023-03-01T15:28:29;4.22;;;1.70;;
78799;SDS011;68148;55.328;86.106;2023-03-01T15:31:20;4.22;;;2.28;;
78799;SDS011;68148;55.328;86.106;2023-03-01T15:33:49;7.43;;;2.55;;
78799;SDS011;68148;55.328;86.106;2023-03-01T15:39:31;7.68;;;2.53;;
78799;SDS011;68148;55.328;86.106;2023-03-01T15:42:00;7.65;;;2.35;;
78799;SDS011;68148;55.328;86.106;2023-03-01T15:44:27;7.22;;;2.40;;
78799;SDS011;68148;55.328;86.106;2023-03-01T15:46:55;6.68;;;2.10;;
78799;SDS011;68148;55.328;86.106;2023-03-01T15:51:54;6.05;;;2.53;;
78799;SDS011;68148;55.328;86.106;2023-03-01T15:54:22;5.13;;;1.98;;
78799;SDS011;68148;55.328;86.106;2023-03-01T15:56:50;6.85;;;2.38;;
78799;SDS011;68148;55.328;86.106;2023-03-01T15:59:16;6.25;;;1.95;;
78799;SDS011;68148;55.328;86.106;2023-03-01T16:01:44;9.48;;;2.63;;
78799;SDS011;68148;55.328;86.106;2023-03-01T16:04:11;8.65;;;2.60;;
78799;SDS011;68148;55.328;86.106;2023-03-01T16:06:39;8.05;;;2.25;;
78799;SDS011;68148;55.328;86.106;2023-03-01T16:09:05;4.95;;;1.95;;
78799;SDS011;68148;55.328;86.106;2023-03-01T16:11:31;7.40;;;2.08;;
78799;SDS011;68148;55.328;86.106;2023-03-01T16:13:57;6.43;;;2.17;;
78799;SDS011;68148;55.328;86.106;2023-03-01T16:16:23;6.40;;;2.20;;
78799;SDS011;68148;55.328;86.106;2023-03-01T16:18:50;7.85;;;1.80;;
78799;SDS011;68148;55.328;86.106;2023-03-01T16:21:18;10.68;;;2.35;;
78799;SDS011;68148;55.328;86.106;2023-03-01T16:23:47;11.43;;;2.90;;
78799;SDS011;68148;55.328;86.106;2023-03-01T16:26:13;7.60;;;2.58;;
78799;SDS011;68148;55.328;86.106;2023-03-01T16:28:41;3.25;;;1.42;;
78799;SDS011;68148;55.328;86.106;2023-03-01T16:31:11;9.82;;;2.17;;
78799;SDS011;68148;55.328;86.106;2023-03-01T16:33:42;6.00;;;2.35;;
78799;SDS011;68148;55.328;86.106;2023-03-01T16:36:09;5.20;;;2.13;;
78799;SDS011;68148;55.328;86.106;2023-03-01T16:38:37;5.18;;;2.00;;
78799;SDS011;68148;55.328;86.106;2023-03-01T16:41:04;7.22;;;2.13;;
78799;SDS011;68148;55.328;86.106;2023-03-01T16:43:31;8.25;;;1.88;;
78799;SDS011;68148;55.328;86.106;2023-03-01T16:45:58;6.18;;;1.48;;